Time;durP1;ratioP1;P1;durP2;ratioP2;P2;SDS_P1;SDS_P2;PMS_P1;PMS_P2;Temp;Humidity;BMP_temperature;BMP_pressure;BME280_temperature;BME280_humidity;BME280_pressure;Samples;Min_cycle;Max_cycle;Signal;HPM_P1;HPM_P2
2022/12/31 00:02:03;;;;;;;10.40;2.10;;;11.50;99.90;;;;;;5086405;28;20547;-75
2022/12/31 00:04:29;;;;;;;7.90;1.97;;;11.60;99.90;;;;;;5089526;28;20405;-75
2022/12/31 00:06:54;;;;;;;12.93;2.22;;;11.60;99.90;;;;;;5087947;28;20420;-75
2022/12/31 00:09:20;;;;;;;9.60;2.03;;;11.60;99.90;;;;;;5087801;28;20406;-74
2022/12/31 00:11:45;;;;;;;12.23;2.05;;;11.60;99.90;;;;;;5089355;28;20412;-75
2022/12/31 00:14:11;;;;;;;8.90;1.63;;;11.60;99.90;;;;;;5088760;28;20854;-75
2022/12/31 00:16:39;;;;;;;10.93;2.50;;;11.60;99.90;;;;;;5088740;28;20467;-75
2022/12/31 00:19:07;;;;;;;12.40;2.10;;;11.60;99.90;;;;;;5088221;28;20398;-74
2022/12/31 00:21:33;;;;;;;11.27;2.40;;;11.70;99.90;;;;;;5089369;28;20416;-74
2022/12/31 00:24:00;;;;;;;11.27;2.00;;;11.70;99.90;;;;;;5087158;28;20900;-75
2022/12/31 00:26:29;;;;;;;9.27;1.98;;;11.70;99.90;;;;;;5090339;28;20446;-74
2022/12/31 00:28:56;;;;;;;11.02;2.08;;;11.70;99.90;;;;;;5088765;28;20459;-74
2022/12/31 00:31:27;;;;;;;10.00;2.50;;;11.70;99.90;;;;;;5086522;28;20822;-75
2022/12/31 00:33:53;;;;;;;12.43;2.35;;;11.70;99.90;;;;;;5090582;28;20414;-74
2022/12/31 00:36:26;;;;;;;10.38;2.53;;;11.70;99.90;;;;;;5086920;28;20776;-74
2022/12/31 00:38:53;;;;;;;9.23;1.90;;;11.70;99.90;;;;;;5087061;28;20492;-74
2022/12/31 00:41:19;;;;;;;10.03;1.80;;;11.70;99.90;;;;;;5088661;28;20509;-74
2022/12/31 00:43:45;;;;;;;10.18;2.00;;;11.80;99.90;;;;;;5090298;28;20402;-74
2022/12/31 00:46:12;;;;;;;11.32;2.40;;;11.80;99.90;;;;;;5089060;28;20421;-74
2022/12/31 00:48:38;;;;;;;9.93;2.20;;;11.80;99.90;;;;;;5102305;28;20413;-74
2022/12/31 00:51:06;;;;;;;9.60;1.98;;;11.80;99.90;;;;;;5088572;28;21025;-74
2022/12/31 00:53:32;;;;;;;11.93;2.35;;;11.80;99.90;;;;;;5090876;28;20733;-74
2022/12/31 00:56:26;;;;;;;8.80;2.10;;;11.80;99.90;;;;;;5091394;28;20451;-74
2022/12/31 00:58:52;;;;;;;10.37;2.07;;;11.80;99.90;;;;;;5088491;28;20420;-74
2022/12/31 01:01:19;;;;;;;10.70;2.25;;;11.80;99.90;;;;;;5089137;28;20408;-74
2022/12/31 01:03:46;;;;;;;9.20;2.42;;;11.80;99.90;;;;;;5092486;28;20446;-74
2022/12/31 01:06:12;;;;;;;11.13;2.42;;;11.80;99.90;;;;;;5086996;28;20767;-74
2022/12/31 01:08:38;;;;;;;10.73;2.65;;;11.70;99.90;;;;;;5092189;28;20404;-74
2022/12/31 01:11:23;;;;;;;12.57;3.00;;;11.80;99.90;;;;;;5090335;28;20402;-74
2022/12/31 01:13:53;;;;;;;11.32;3.08;;;11.70;99.90;;;;;;5088619;28;20750;-74
2022/12/31 01:16:28;;;;;;;13.20;3.03;;;11.80;99.90;;;;;;5089053;28;20407;-74
2022/12/31 01:18:54;;;;;;;14.05;3.13;;;11.70;99.90;;;;;;5088439;28;20406;-74
2022/12/31 01:21:21;;;;;;;13.77;3.22;;;11.70;99.90;;;;;;5082335;28;20422;-74
2022/12/31 01:23:47;;;;;;;9.95;2.58;;;11.70;99.90;;;;;;5087989;28;20451;-76
2022/12/31 01:26:14;;;;;;;17.70;3.38;;;11.70;99.90;;;;;;5085931;28;20760;-75
2022/12/31 01:28:40;;;;;;;13.23;2.83;;;11.80;99.90;;;;;;5090964;28;20414;-75
2022/12/31 01:31:08;;;;;;;15.70;2.73;;;11.70;99.90;;;;;;5090214;28;20410;-75
2022/12/31 01:33:34;;;;;;;15.87;3.40;;;11.70;99.90;;;;;;5089948;28;20798;-75
2022/12/31 01:36:09;;;;;;;14.70;2.57;;;11.70;99.90;;;;;;5093819;28;20444;-75
2022/12/31 01:38:35;;;;;;;15.95;2.60;;;11.70;99.90;;;;;;5087628;28;20410;-75
2022/12/31 01:41:01;;;;;;;14.80;2.90;;;11.70;99.90;;;;;;5093860;28;20762;-75
2022/12/31 01:43:45;;;;;;;12.02;2.40;;;11.60;99.90;;;;;;5090167;28;20414;-75
2022/12/31 01:46:15;;;;;;;10.35;2.55;;;11.60;99.90;;;;;;5086925;28;20414;-75
2022/12/31 01:48:41;;;;;;;18.80;3.35;;;11.70;99.90;;;;;;5090550;28;20410;-75
2022/12/31 01:51:09;;;;;;;12.57;2.75;;;11.70;99.90;;;;;;5086317;28;20430;-75
2022/12/31 01:53:35;;;;;;;12.80;3.40;;;11.70;99.90;;;;;;5087771;28;20837;-75
2022/12/31 01:56:01;;;;;;;16.33;3.35;;;11.70;99.90;;;;;;5088484;28;20430;-75
2022/12/31 01:58:35;;;;;;;16.65;3.22;;;11.60;99.90;;;;;;5089669;28;20463;-75
2022/12/31 02:01:01;;;;;;;12.90;2.95;;;11.60;99.90;;;;;;5092465;28;20414;-75
2022/12/31 02:03:28;;;;;;;16.20;4.05;;;11.60;99.90;;;;;;5087408;28;20410;-75
2022/12/31 02:05:58;;;;;;;17.65;3.70;;;11.60;99.90;;;;;;5087125;28;20459;-75
2022/12/31 02:08:24;;;;;;;15.23;3.47;;;11.60;99.90;;;;;;5087357;28;20467;-75
2022/12/31 02:10:50;;;;;;;15.80;3.83;;;11.60;99.90;;;;;;5086463;28;20790;-75
2022/12/31 02:13:15;;;;;;;16.60;3.63;;;11.60;99.90;;;;;;5085712;28;20410;-75
2022/12/31 02:16:04;;;;;;;16.10;3.47;;;11.60;99.90;;;;;;5085859;28;20445;-75
2022/12/31 02:18:48;;;;;;;13.82;3.40;;;11.50;99.90;;;;;;5079998;28;20866;-75
2022/12/31 02:21:28;;;;;;;12.00;3.25;;;11.50;99.90;;;;;;5081931;28;20410;-75
2022/12/31 02:24:21;;;;;;;13.85;3.05;;;11.50;99.90;;;;;;5087029;28;20761;-75
2022/12/31 02:26:54;;;;;;;11.77;3.25;;;11.50;99.90;;;;;;5082194;28;20471;-75
2022/12/31 02:29:58;;;;;;;10.52;2.85;;;11.50;99.90;;;;;;5085470;28;21441;-75
2022/12/31 02:33:04;;;;;;;11.82;3.35;;;11.50;99.90;;;;;;5091192;28;20579;-75
2022/12/31 02:35:42;;;;;;;10.60;3.38;;;11.50;99.90;;;;;;5057300;28;20460;-75
2022/12/31 02:38:20;;;;;;;11.93;3.30;;;11.50;99.90;;;;;;5089572;28;20418;-75
2022/12/31 02:40:47;;;;;;;13.45;3.22;;;11.50;99.90;;;;;;5092187;28;20402;-75
2022/12/31 02:43:12;;;;;;;12.35;2.75;;;11.40;99.90;;;;;;5093824;28;20406;-75
2022/12/31 02:45:43;;;;;;;12.43;3.33;;;11.50;99.90;;;;;;5094909;28;20776;-75
2022/12/31 02:48:26;;;;;;;11.43;3.27;;;11.40;99.90;;;;;;5095807;28;20450;-75
2022/12/31 02:51:27;;;;;;;9.98;3.20;;;11.50;99.90;;;;;;5086338;28;20410;-75
2022/12/31 02:54:11;;;;;;;12.85;3.50;;;11.40;99.90;;;;;;5041925;28;20418;-75
2022/12/31 02:57:03;;;;;;;8.73;3.10;;;11.50;99.90;;;;;;5093274;28;20416;-75
2022/12/31 03:02:23;;;;;;;10.07;3.70;;;11.50;99.90;;;;;;5082626;28;20453;-75
2022/12/31 03:04:52;;;;;;;9.80;3.25;;;11.50;99.90;;;;;;5090517;28;20404;-76
2022/12/31 03:07:21;;;;;;;7.55;3.33;;;11.40;99.90;;;;;;5095196;28;20412;-76
2022/12/31 03:09:46;;;;;;;9.82;3.13;;;11.40;99.90;;;;;;5095150;28;20455;-76
2022/12/31 03:14:58;;;;;;;7.95;2.70;;;11.40;99.90;;;;;;5089886;28;20438;-75
2022/12/31 03:17:23;;;;;;;8.25;2.97;;;11.40;99.90;;;;;;5097518;28;20404;-75
2022/12/31 03:22:37;;;;;;;9.05;3.40;;;11.40;99.90;;;;;;5090043;28;20414;-75
2022/12/31 03:27:51;;;;;;;7.18;2.50;;;11.40;99.90;;;;;;5086475;28;20435;-75
2022/12/31 03:30:18;;;;;;;8.32;2.70;;;11.30;99.90;;;;;;5090703;28;20921;-75
2022/12/31 03:32:45;;;;;;;8.07;3.08;;;11.30;99.90;;;;;;5091541;28;20487;-75
2022/12/31 03:35:13;;;;;;;8.88;2.63;;;11.40;99.90;;;;;;5090791;28;20438;-76
2022/12/31 03:37:39;;;;;;;8.55;2.83;;;11.30;99.90;;;;;;5091129;28;20495;-75
2022/12/31 03:40:07;;;;;;;8.45;2.25;;;11.40;99.90;;;;;;5088449;28;20421;-75
2022/12/31 03:42:33;;;;;;;6.60;2.20;;;11.30;99.90;;;;;;5092050;28;20918;-75
2022/12/31 03:44:59;;;;;;;5.78;1.95;;;11.30;99.90;;;;;;5096290;28;20400;-75
2022/12/31 03:47:24;;;;;;;5.73;1.77;;;11.30;99.90;;;;;;5091853;28;20412;-75
2022/12/31 03:49:50;;;;;;;6.70;1.67;;;11.30;99.90;;;;;;5096030;28;20400;-75
2022/12/31 03:52:16;;;;;;;7.60;1.73;;;11.30;99.90;;;;;;5092018;28;20409;-75
2022/12/31 03:54:41;;;;;;;7.10;1.80;;;11.30;99.90;;;;;;5094382;28;20429;-75
2022/12/31 03:57:07;;;;;;;7.40;1.60;;;11.30;99.90;;;;;;5093133;28;20406;-75
2022/12/31 03:59:33;;;;;;;6.25;1.20;;;11.30;99.90;;;;;;5095031;28;20423;-75
2022/12/31 04:01:58;;;;;;;5.40;1.52;;;11.30;99.90;;;;;;5095212;28;20393;-75
2022/12/31 04:04:24;;;;;;;7.73;1.40;;;11.30;99.90;;;;;;5095119;28;20785;-75
2022/12/31 04:06:50;;;;;;;4.53;1.17;;;11.20;99.90;;;;;;5095793;28;20453;-75
2022/12/31 04:09:15;;;;;;;4.35;1.10;;;11.30;99.90;;;;;;5096780;28;20402;-75
2022/12/31 04:11:41;;;;;;;4.87;0.90;;;11.20;99.90;;;;;;5094265;28;20416;-75
2022/12/31 04:14:06;;;;;;;4.97;1.35;;;11.20;99.90;;;;;;5095095;28;20412;-75
2022/12/31 04:16:34;;;;;;;5.65;1.17;;;11.20;99.90;;;;;;5093709;28;20417;-75
2022/12/31 04:19:00;;;;;;;4.77;1.07;;;11.20;99.90;;;;;;5095001;28;20457;-75
2022/12/31 04:21:26;;;;;;;4.38;0.90;;;11.10;99.90;;;;;;5094184;28;20629;-75
2022/12/31 04:23:51;;;;;;;6.20;1.10;;;11.10;99.90;;;;;;5095372;28;20434;-75
2022/12/31 04:26:17;;;;;;;3.23;0.70;;;11.10;99.90;;;;;;5093309;28;20417;-75
2022/12/31 04:28:42;;;;;;;6.07;0.85;;;11.10;99.90;;;;;;5092634;28;20409;-75
2022/12/31 04:31:10;;;;;;;4.17;0.70;;;11.10;99.90;;;;;;5091757;28;20987;-75
2022/12/31 04:33:36;;;;;;;3.95;0.70;;;11.00;99.90;;;;;;5095512;28;20920;-75
2022/12/31 04:36:06;;;;;;;4.97;0.60;;;11.10;99.90;;;;;;5091374;28;20434;-75
2022/12/31 04:38:33;;;;;;;4.10;0.40;;;11.10;99.90;;;;;;5095001;28;20443;-75
2022/12/31 04:41:17;;;;;;;2.30;0.35;;;11.00;99.90;;;;;;5094195;28;20404;-75
2022/12/31 04:43:45;;;;;;;3.50;0.40;;;11.10;99.90;;;;;;5095804;28;20465;-75
2022/12/31 04:46:12;;;;;;;3.05;0.50;;;11.00;99.90;;;;;;5092413;28;20488;-74
2022/12/31 04:48:37;;;;;;;3.30;0.45;;;11.00;99.90;;;;;;5098178;28;20916;-75
2022/12/31 04:51:03;;;;;;;3.83;0.40;;;11.00;99.90;;;;;;5091871;28;20415;-75
2022/12/31 04:53:29;;;;;;;4.35;0.55;;;11.00;99.90;;;;;;5095970;28;20440;-75
2022/12/31 04:55:55;;;;;;;2.60;0.30;;;11.00;99.90;;;;;;5091580;28;20465;-75
2022/12/31 04:58:20;;;;;;;4.00;0.60;;;11.00;99.90;;;;;;5096481;28;20415;-75
2022/12/31 05:00:49;;;;;;;3.47;0.50;;;10.90;99.90;;;;;;5093074;28;20413;-75
2022/12/31 05:03:15;;;;;;;7.30;0.80;;;11.00;99.90;;;;;;5091204;28;20943;-75
2022/12/31 05:05:42;;;;;;;3.35;0.70;;;11.00;99.90;;;;;;5091205;28;20445;-75
2022/12/31 05:08:11;;;;;;;4.35;0.95;;;10.90;99.90;;;;;;5092215;28;20406;-75
2022/12/31 05:10:41;;;;;;;5.63;1.10;;;10.90;99.90;;;;;;5092997;28;20391;-75
2022/12/31 05:13:07;;;;;;;5.68;0.90;;;10.90;99.90;;;;;;5092347;27;20420;-75
2022/12/31 05:15:32;;;;;;;5.80;0.80;;;10.90;99.90;;;;;;5094481;28;20422;-75
2022/12/31 05:17:58;;;;;;;3.72;0.90;;;10.90;99.90;;;;;;5097947;28;20975;-75
2022/12/31 05:20:24;;;;;;;4.63;0.95;;;10.90;99.90;;;;;;5093185;28;20511;-75
2022/12/31 05:22:49;;;;;;;4.63;0.70;;;10.90;99.90;;;;;;5097551;28;20407;-75
2022/12/31 05:25:15;;;;;;;4.30;0.90;;;10.90;99.90;;;;;;5092857;28;20442;-75
2022/12/31 05:27:41;;;;;;;4.28;0.60;;;10.80;99.90;;;;;;5098503;28;20748;-75
2022/12/31 05:30:07;;;;;;;4.60;0.83;;;10.80;99.90;;;;;;5089186;28;20413;-75
2022/12/31 05:32:33;;;;;;;5.00;0.90;;;10.80;99.90;;;;;;5089524;28;20412;-75
2022/12/31 05:34:59;;;;;;;4.75;0.90;;;10.80;99.90;;;;;;5086553;28;20830;-75
2022/12/31 05:37:28;;;;;;;4.40;0.80;;;10.80;99.90;;;;;;5087924;28;20406;-75
2022/12/31 05:39:54;;;;;;;4.18;0.98;;;10.70;99.90;;;;;;5089703;28;20591;-75
2022/12/31 05:42:21;;;;;;;4.78;0.95;;;10.70;99.90;;;;;;5090794;28;21154;-75
2022/12/31 05:44:47;;;;;;;5.22;1.02;;;10.70;99.90;;;;;;5089274;28;20410;-75
2022/12/31 05:47:13;;;;;;;4.67;0.80;;;10.70;99.90;;;;;;5089387;28;20428;-75
2022/12/31 05:49:38;;;;;;;4.28;1.13;;;10.70;99.90;;;;;;5091137;28;20394;-75
2022/12/31 05:52:04;;;;;;;3.78;0.70;;;10.70;99.90;;;;;;5091412;28;20435;-75
2022/12/31 05:54:30;;;;;;;4.90;1.13;;;10.70;99.90;;;;;;5090675;28;20529;-75
2022/12/31 05:56:55;;;;;;;4.72;1.00;;;10.70;99.90;;;;;;5090666;28;20961;-75
2022/12/31 05:59:21;;;;;;;4.80;1.00;;;10.70;99.90;;;;;;5090598;28;20406;-75
2022/12/31 06:01:46;;;;;;;4.55;0.85;;;10.70;99.90;;;;;;5090952;28;20484;-75
2022/12/31 06:04:12;;;;;;;5.68;1.38;;;10.70;99.90;;;;;;5090478;28;20480;-75
2022/12/31 06:06:38;;;;;;;7.23;1.30;;;10.70;99.90;;;;;;5091308;28;20425;-75
2022/12/31 06:09:03;;;;;;;5.63;1.20;;;10.70;99.90;;;;;;5090927;28;20398;-75
2022/12/31 06:11:29;;;;;;;5.07;1.40;;;10.70;99.90;;;;;;5091219;28;20429;-75
2022/12/31 06:13:57;;;;;;;5.28;1.30;;;10.70;99.90;;;;;;5090815;28;20493;-75
2022/12/31 06:16:22;;;;;;;4.30;1.20;;;10.70;99.90;;;;;;5090215;28;20910;-75
2022/12/31 06:18:49;;;;;;;5.95;1.20;;;10.70;99.90;;;;;;5094317;28;20402;-74
2022/12/31 06:21:16;;;;;;;5.33;1.20;;;10.70;99.90;;;;;;5095412;28;20437;-75
2022/12/31 06:23:42;;;;;;;6.18;1.55;;;10.70;99.90;;;;;;5077505;28;20405;-75
2022/12/31 06:26:07;;;;;;;6.43;1.55;;;10.70;99.90;;;;;;5096933;28;20433;-75
2022/12/31 06:28:33;;;;;;;6.20;1.13;;;10.70;99.90;;;;;;5094645;28;20393;-75
2022/12/31 06:31:04;;;;;;;7.78;1.45;;;10.70;99.90;;;;;;5092758;28;20887;-75
2022/12/31 06:33:30;;;;;;;6.35;1.10;;;10.70;99.90;;;;;;5089500;28;20410;-75
2022/12/31 06:35:56;;;;;;;4.28;0.73;;;10.70;99.90;;;;;;5092186;28;20792;-76
2022/12/31 06:38:23;;;;;;;4.75;0.65;;;10.70;99.90;;;;;;5091963;28;20429;-75
2022/12/31 06:40:49;;;;;;;3.28;0.65;;;10.70;99.90;;;;;;5094180;27;20804;-75
2022/12/31 06:43:15;;;;;;;3.22;0.35;;;10.60;99.90;;;;;;5094598;28;20490;-75
2022/12/31 06:45:40;;;;;;;3.30;0.47;;;10.60;99.90;;;;;;5088926;28;20459;-75
2022/12/31 06:48:06;;;;;;;2.95;0.30;;;10.60;99.90;;;;;;5097505;28;20398;-75
2022/12/31 06:50:32;;;;;;;1.97;0.20;;;10.50;99.90;;;;;;5090955;28;20413;-75
2022/12/31 06:52:58;;;;;;;2.67;0.40;;;10.40;99.90;;;;;;5096052;28;20401;-75
2022/12/31 06:55:24;;;;;;;3.00;0.40;;;10.40;99.90;;;;;;5092672;28;20571;-75
2022/12/31 06:57:50;;;;;;;2.83;0.30;;;10.40;99.90;;;;;;5076866;28;20406;-76
2022/12/31 07:00:16;;;;;;;3.70;0.70;;;10.30;99.90;;;;;;5088778;28;20440;-76
2022/12/31 07:02:58;;;;;;;4.07;0.50;;;10.30;99.90;;;;;;5089385;28;20540;-76
2022/12/31 07:05:38;;;;;;;4.05;0.50;;;10.30;99.90;;;;;;5089987;28;20425;-76
2022/12/31 07:08:04;;;;;;;5.87;0.70;;;10.30;99.90;;;;;;5096896;28;20416;-76
2022/12/31 07:10:35;;;;;;;5.15;0.68;;;10.30;99.90;;;;;;5093390;28;20406;-76
2022/12/31 07:13:22;;;;;;;5.70;0.90;;;10.20;99.90;;;;;;5090066;28;20493;-76
2022/12/31 07:16:12;;;;;;;4.82;0.75;;;10.20;99.90;;;;;;5096882;28;20700;-76
2022/12/31 07:18:47;;;;;;;6.05;1.10;;;10.20;99.90;;;;;;5093527;28;20422;-76
2022/12/31 07:21:15;;;;;;;6.53;1.02;;;10.20;99.90;;;;;;5089552;28;20423;-76
2022/12/31 07:23:42;;;;;;;7.75;1.45;;;10.20;99.90;;;;;;5077348;28;20468;-76
2022/12/31 07:26:35;;;;;;;7.07;1.30;;;10.20;99.90;;;;;;5092876;28;20425;-76
2022/12/31 07:29:10;;;;;;;5.37;0.90;;;10.20;99.90;;;;;;5092839;28;20483;-76
2022/12/31 07:31:36;;;;;;;5.63;0.80;;;10.20;99.90;;;;;;5091466;28;20418;-76
2022/12/31 07:34:18;;;;;;;5.57;0.87;;;10.20;99.90;;;;;;5086629;28;20550;-76
2022/12/31 07:37:02;;;;;;;4.40;0.70;;;10.20;99.90;;;;;;5071754;28;20407;-76
2022/12/31 07:39:45;;;;;;;4.65;0.70;;;10.20;99.90;;;;;;5088392;28;20445;-76
2022/12/31 07:42:20;;;;;;;5.30;0.60;;;10.10;99.90;;;;;;5088587;28;20417;-76
2022/12/31 07:45:01;;;;;;;4.85;1.00;;;10.10;99.90;;;;;;5089613;28;20437;-76
2022/12/31 07:47:28;;;;;;;4.07;1.27;;;10.10;99.90;;;;;;5088197;28;20418;-76
2022/12/31 07:49:55;;;;;;;7.28;1.55;;;10.20;99.90;;;;;;5088833;28;20413;-76
2022/12/31 07:52:21;;;;;;;5.55;1.92;;;10.10;99.90;;;;;;5087804;28;20509;-76
2022/12/31 07:54:47;;;;;;;6.80;2.67;;;10.10;99.90;;;;;;5088191;28;20863;-76
2022/12/31 07:57:14;;;;;;;6.67;2.60;;;10.10;99.90;;;;;;5088742;28;20437;-76
2022/12/31 07:59:58;;;;;;;6.65;3.17;;;10.20;99.90;;;;;;5089512;28;20444;-76
2022/12/31 08:02:24;;;;;;;6.88;3.53;;;10.20;99.90;;;;;;5088184;28;20417;-76
2022/12/31 08:05:10;;;;;;;5.37;3.70;;;10.20;99.90;;;;;;5089367;28;20417;-76
2022/12/31 08:07:52;;;;;;;7.03;3.30;;;10.30;99.90;;;;;;5071647;28;20417;-76
2022/12/31 08:10:26;;;;;;;6.47;3.47;;;10.30;99.90;;;;;;5079837;28;20463;-76
2022/12/31 08:12:59;;;;;;;5.95;2.50;;;10.30;99.90;;;;;;5087638;28;20418;-76
2022/12/31 08:15:25;;;;;;;4.70;2.55;;;10.40;99.90;;;;;;5088133;28;21063;-76
2022/12/31 08:17:51;;;;;;;3.80;2.25;;;10.30;99.90;;;;;;5087162;28;20493;-76
2022/12/31 08:20:17;;;;;;;4.97;2.10;;;10.40;99.90;;;;;;5088962;28;20489;-76
2022/12/31 08:23:08;;;;;;;4.75;2.10;;;10.40;99.90;;;;;;5087484;28;20448;-76
2022/12/31 08:26:18;;;;;;;4.70;2.20;;;10.40;99.90;;;;;;5070988;28;20422;-76
2022/12/31 08:29:08;;;;;;;4.57;2.40;;;10.40;99.90;;;;;;5085320;28;20413;-76
2022/12/31 08:31:48;;;;;;;4.10;2.20;;;10.40;99.90;;;;;;5064102;28;20500;-76
2022/12/31 08:34:28;;;;;;;3.63;1.83;;;10.40;99.90;;;;;;5085661;28;20498;-76
2022/12/31 08:37:11;;;;;;;5.85;2.55;;;10.40;99.90;;;;;;5087538;28;20395;-76
2022/12/31 08:39:40;;;;;;;6.00;2.78;;;10.40;99.90;;;;;;5088422;28;20411;-76
2022/12/31 08:42:21;;;;;;;4.97;3.00;;;10.40;99.90;;;;;;5086686;28;20492;-76
2022/12/31 08:45:11;;;;;;;5.63;3.35;;;10.40;99.90;;;;;;5088941;28;20410;-75
2022/12/31 08:48:01;;;;;;;7.22;3.78;;;10.40;99.90;;;;;;5076681;28;21168;-76
2022/12/31 08:50:27;;;;;;;8.27;4.45;;;10.40;99.90;;;;;;5080378;28;20419;-76
2022/12/31 08:52:53;;;;;;;5.70;3.00;;;10.40;99.90;;;;;;5079660;28;20930;-74
2022/12/31 08:55:19;;;;;;;4.65;2.50;;;10.40;99.90;;;;;;5085350;28;20514;-74
2022/12/31 08:57:57;;;;;;;9.30;5.40;;;10.40;99.90;;;;;;5090349;28;20854;-74
2022/12/31 09:00:23;;;;;;;6.00;3.78;;;10.40;99.90;;;;;;5075200;28;20468;-74
2022/12/31 09:02:54;;;;;;;7.72;3.78;;;10.50;99.90;;;;;;5080664;28;20762;-75
2022/12/31 09:05:24;;;;;;;5.78;4.30;;;10.50;99.90;;;;;;5082851;28;20420;-75
2022/12/31 09:08:15;;;;;;;5.63;3.30;;;10.50;99.90;;;;;;5080854;28;21254;-74
2022/12/31 09:11:02;;;;;;;5.20;3.50;;;10.50;99.90;;;;;;5075622;28;20416;-75
2022/12/31 09:14:01;;;;;;;4.27;3.10;;;10.60;99.90;;;;;;5080872;28;20424;-75
2022/12/31 09:16:45;;;;;;;4.57;3.17;;;10.60;99.90;;;;;;5081314;28;20493;-74
2022/12/31 09:19:11;;;;;;;5.15;3.35;;;10.70;99.90;;;;;;5089882;28;20410;-75
2022/12/31 09:21:40;;;;;;;4.00;2.88;;;10.80;99.90;;;;;;5088627;28;20417;-75
2022/12/31 09:24:06;;;;;;;3.70;2.40;;;10.80;99.90;;;;;;5095152;28;20408;-75
2022/12/31 09:26:43;;;;;;;3.20;2.30;;;10.90;99.90;;;;;;5095135;28;20512;-75
2022/12/31 09:29:32;;;;;;;3.70;2.20;;;10.90;99.90;;;;;;5093523;28;20414;-75
2022/12/31 09:32:17;;;;;;;3.33;2.03;;;11.00;99.90;;;;;;5082758;28;20433;-75
2022/12/31 09:34:46;;;;;;;2.90;2.00;;;11.10;99.90;;;;;;5081590;28;20524;-75
2022/12/31 09:37:22;;;;;;;2.70;1.70;;;11.20;99.90;;;;;;5088237;28;20470;-75
2022/12/31 09:39:48;;;;;;;3.05;1.77;;;11.30;99.90;;;;;;5086646;28;20499;-75
2022/12/31 09:42:47;;;;;;;2.25;1.50;;;11.40;99.90;;;;;;5085827;28;20448;-75
2022/12/31 09:45:40;;;;;;;2.53;1.40;;;11.50;99.90;;;;;;5073214;28;20433;-75
2022/12/31 09:48:34;;;;;;;2.17;1.10;;;11.60;99.90;;;;;;5087881;28;20433;-75
2022/12/31 09:51:12;;;;;;;2.78;1.42;;;11.70;99.90;;;;;;5080960;28;20433;-75
2022/12/31 09:53:40;;;;;;;3.13;1.08;;;11.80;99.90;;;;;;5089069;28;20426;-74
2022/12/31 09:56:38;;;;;;;7.67;5.20;;;11.80;99.90;;;;;;5091104;28;20436;-75
2022/12/31 09:59:52;;;;;;;4.35;1.38;;;11.90;99.90;;;;;;5074642;28;20452;-75
2022/12/31 10:02:36;;;;;;;2.92;0.93;;;11.90;99.90;;;;;;5079783;28;21196;-75
2022/12/31 10:05:44;;;;;;;3.40;1.03;;;12.00;99.90;;;;;;5092092;28;20410;-75
2022/12/31 10:08:09;;;;;;;3.28;1.38;;;12.00;99.90;;;;;;5091779;28;20457;-75
2022/12/31 10:11:00;;;;;;;2.40;0.80;;;12.10;99.90;;;;;;5075457;28;21322;-75
2022/12/31 10:13:36;;;;;;;4.38;2.40;;;12.20;99.90;;;;;;5092046;28;20459;-75
2022/12/31 10:16:10;;;;;;;2.25;0.80;;;12.20;99.90;;;;;;5094046;28;20521;-75
2022/12/31 10:18:54;;;;;;;3.17;0.70;;;12.30;99.90;;;;;;5085015;28;20470;-75
2022/12/31 10:21:45;;;;;;;4.43;1.13;;;12.30;99.90;;;;;;5090155;28;20423;-75
2022/12/31 10:24:44;;;;;;;2.83;0.50;;;12.30;99.90;;;;;;5093652;28;20425;-75
2022/12/31 10:27:20;;;;;;;2.40;0.45;;;12.40;99.90;;;;;;5074591;28;20503;-75
2022/12/31 10:30:05;;;;;;;3.20;0.60;;;12.50;99.90;;;;;;5087398;28;20437;-74
2022/12/31 10:32:34;;;;;;;2.53;0.40;;;12.60;99.90;;;;;;5090167;28;20464;-75
2022/12/31 10:35:25;;;;;;;2.83;0.30;;;12.70;99.90;;;;;;5086642;28;20834;-75
2022/12/31 10:38:03;;;;;;;3.58;0.40;;;12.80;99.90;;;;;;5086064;28;20452;-74
2022/12/31 10:40:34;;;;;;;2.97;0.50;;;12.90;99.90;;;;;;5090490;28;20414;-74
2022/12/31 10:43:30;;;;;;;4.30;0.47;;;13.00;99.90;;;;;;5089157;28;20418;-74
2022/12/31 10:46:01;;;;;;;5.65;0.50;;;13.00;99.90;;;;;;5080791;28;20414;-74
2022/12/31 10:48:49;;;;;;;5.38;0.73;;;13.10;99.90;;;;;;5090382;28;20410;-74
2022/12/31 10:51:21;;;;;;;6.93;1.20;;;13.20;99.90;;;;;;5087852;28;21001;-75
2022/12/31 10:54:01;;;;;;;4.45;1.58;;;13.20;99.90;;;;;;5089101;28;20410;-75
2022/12/31 10:56:32;;;;;;;5.73;0.60;;;13.20;99.90;;;;;;5091603;28;20954;-74
2022/12/31 10:59:30;;;;;;;6.55;0.50;;;13.30;99.90;;;;;;5088363;28;20445;-74
2022/12/31 11:02:05;;;;;;;5.03;0.77;;;13.50;99.90;;;;;;5092362;28;20938;-74
2022/12/31 11:05:05;;;;;;;5.35;1.05;;;13.60;99.90;;;;;;5098018;28;20544;-74
2022/12/31 11:08:09;;;;;;;6.00;1.20;;;13.70;99.90;;;;;;5091947;28;20410;-74
2022/12/31 11:11:07;;;;;;;4.40;1.33;;;13.80;99.90;;;;;;5094325;28;20414;-74
2022/12/31 11:14:06;;;;;;;5.63;0.77;;;13.90;99.90;;;;;;5094574;28;20414;-74
2022/12/31 11:16:49;;;;;;;4.30;1.20;;;14.00;99.90;;;;;;5092568;28;20441;-74
2022/12/31 11:19:39;;;;;;;4.43;1.00;;;14.00;99.90;;;;;;5101288;28;20404;-74
2022/12/31 11:22:30;;;;;;;6.22;1.10;;;13.90;99.90;;;;;;5096366;28;20422;-74
2022/12/31 11:25:11;;;;;;;4.97;1.00;;;13.90;99.90;;;;;;5095078;28;20444;-75
2022/12/31 11:28:01;;;;;;;5.97;1.20;;;13.90;99.90;;;;;;5089498;28;20447;-74
2022/12/31 11:31:04;;;;;;;5.03;0.70;;;13.90;99.90;;;;;;5091511;28;20412;-74
2022/12/31 11:33:35;;;;;;;6.10;0.77;;;13.90;99.90;;;;;;5063303;28;20421;-74
2022/12/31 11:36:39;;;;;;;6.38;1.00;;;13.80;99.90;;;;;;5092247;28;20473;-74
2022/12/31 11:39:20;;;;;;;8.93;1.27;;;13.90;99.90;;;;;;5091474;28;21531;-74
2022/12/31 11:42:10;;;;;;;7.43;1.65;;;13.90;99.90;;;;;;5092197;28;20423;-74
2022/12/31 11:44:53;;;;;;;6.63;1.08;;;13.90;99.90;;;;;;5091296;28;20413;-74
2022/12/31 11:47:41;;;;;;;8.93;2.00;;;13.90;99.90;;;;;;5090620;28;20508;-74
2022/12/31 11:50:26;;;;;;;7.73;1.30;;;13.90;99.90;;;;;;5095248;28;20431;-74
2022/12/31 11:53:25;;;;;;;8.95;1.30;;;13.80;99.90;;;;;;5093111;28;20841;-74
2022/12/31 11:56:13;;;;;;;7.72;1.38;;;13.80;99.90;;;;;;5083400;28;21091;-74
2022/12/31 11:58:48;;;;;;;9.20;1.20;;;13.70;99.90;;;;;;5091081;28;20417;-73
2022/12/31 12:01:21;;;;;;;7.60;0.90;;;13.70;99.90;;;;;;5094088;28;20397;-74
2022/12/31 12:03:47;;;;;;;4.30;0.87;;;13.60;99.90;;;;;;5086845;28;20843;-75
2022/12/31 12:06:15;;;;;;;6.73;1.47;;;13.60;99.90;;;;;;5087932;28;20420;-75
2022/12/31 12:08:42;;;;;;;6.03;1.00;;;13.60;99.90;;;;;;5084323;28;20414;-75
2022/12/31 12:11:22;;;;;;;6.55;0.80;;;13.60;99.90;;;;;;5082998;28;20416;-75
2022/12/31 12:13:48;;;;;;;5.47;0.90;;;13.70;99.90;;;;;;5086043;28;21190;-74
2022/12/31 12:16:14;;;;;;;7.15;1.15;;;13.70;99.90;;;;;;5089364;28;20430;-75
2022/12/31 12:18:44;;;;;;;4.55;0.85;;;13.60;99.90;;;;;;5086918;28;20414;-75
2022/12/31 12:21:17;;;;;;;6.55;1.00;;;13.70;99.90;;;;;;5096642;28;20639;-74
2022/12/31 12:24:02;;;;;;;5.25;0.80;;;13.70;99.90;;;;;;5072817;28;20437;-74
2022/12/31 12:26:41;;;;;;;5.55;0.68;;;13.70;99.90;;;;;;5072142;28;20588;-74
2022/12/31 12:29:11;;;;;;;4.47;0.70;;;13.70;99.90;;;;;;5085474;28;20435;-75
2022/12/31 12:31:37;;;;;;;4.15;0.60;;;13.80;99.90;;;;;;5083416;28;20475;-74
2022/12/31 12:34:04;;;;;;;3.55;0.75;;;13.80;99.90;;;;;;5087004;28;20413;-74
2022/12/31 12:36:30;;;;;;;4.55;0.65;;;13.70;99.90;;;;;;5086636;28;20445;-74
2022/12/31 12:39:04;;;;;;;4.65;0.88;;;13.70;99.90;;;;;;5070454;28;20430;-74
2022/12/31 12:41:30;;;;;;;5.07;1.08;;;13.70;99.90;;;;;;5069275;28;20429;-74
2022/12/31 12:44:13;;;;;;;6.95;1.10;;;13.70;99.90;;;;;;5086248;28;20433;-75
2022/12/31 12:46:45;;;;;;;7.32;1.30;;;13.70;99.90;;;;;;5090960;28;20428;-74
2022/12/31 12:49:24;;;;;;;8.75;1.80;;;13.70;99.90;;;;;;5087147;28;20449;-73
2022/12/31 12:52:20;;;;;;;6.97;1.50;;;13.70;99.90;;;;;;5088372;28;20491;-73
2022/12/31 12:55:18;;;;;;;6.75;1.20;;;13.80;99.90;;;;;;5084211;28;20495;-73
2022/12/31 12:58:13;;;;;;;7.57;1.40;;;13.70;99.90;;;;;;5088823;28;20467;-73
2022/12/31 13:00:46;;;;;;;6.68;1.33;;;13.70;99.90;;;;;;5074044;28;20524;-73
2022/12/31 13:03:47;;;;;;;8.57;3.38;;;13.80;99.90;;;;;;5084507;28;20430;-74
2022/12/31 13:06:32;;;;;;;9.07;2.60;;;13.80;99.90;;;;;;5075817;28;20922;-73
2022/12/31 13:09:21;;;;;;;7.75;2.30;;;13.70;99.90;;;;;;5091733;28;20483;-73
2022/12/31 13:12:13;;;;;;;9.80;3.40;;;13.80;99.90;;;;;;5088548;28;20521;-73
2022/12/31 13:14:38;;;;;;;7.80;1.30;;;13.70;99.90;;;;;;5085409;28;20822;-73
2022/12/31 13:17:23;;;;;;;7.78;1.50;;;13.70;99.90;;;;;;5091218;28;20410;-73
2022/12/31 13:19:51;;;;;;;8.15;1.50;;;13.70;99.90;;;;;;5082963;28;20487;-73
2022/12/31 13:22:17;;;;;;;10.32;3.10;;;13.60;99.90;;;;;;5092673;28;20782;-73
2022/12/31 13:24:48;;;;;;;7.38;2.28;;;13.60;99.90;;;;;;5070140;28;20437;-73
2022/12/31 13:27:35;;;;;;;8.40;1.50;;;13.60;99.90;;;;;;5091067;28;20920;-72
2022/12/31 13:30:11;;;;;;;9.10;1.50;;;13.60;99.90;;;;;;5083723;28;20461;-72
2022/12/31 13:32:41;;;;;;;8.27;1.27;;;13.60;99.90;;;;;;5084580;28;20436;-72